Green Cape, Australia
Current Conditions -  °F | °C
As of 7:30 PM on Saturday 25 Oct 2014 (Local Time) from YMER Reporting Station
Overcast Overcast  
Wind Chill: 61°   Ceiling: 1100
Heat Index: 61°   Visibility: 4mi
Dew Point: 57°   Wind: 0mph
Humidity: 88%   Direction: NA
Pressure: 30"   Gusts: NA
Location:  37.26°S, 150.05°E
Report Text: YMER 250830Z AUTO 00000KT 7000 // BKN011 OVC015 16/14 Q1016
Loading
Personal Weather Stations






























Interactive Weather Map
Tropical Storm Tracking
New forecast layout! Learn more

10-Day Weather Forecast

Advertisements
Track Severe Weather on mobile